Time;durP1;ratioP1;P1;durP2;ratioP2;P2;SDS_P1;SDS_P2;PMS_P1;PMS_P2;Temp;Humidity;BMP_temperature;BMP_pressure;BME280_temperature;BME280_humidity;BME280_pressure;Samples;Min_cycle;Max_cycle;Signal;HPM_P1;HPM_P2
2022/10/27 00:00:25;;;;;;;10.77;5.20;;;16.60;99.90;;;;;;4985297;28;20229;-72
2022/10/27 00:02:50;;;;;;;9.10;6.40;;;16.60;99.90;;;;;;4978007;28;20924;-72
2022/10/27 00:05:16;;;;;;;7.20;5.00;;;16.60;99.90;;;;;;4991272;28;20345;-71
2022/10/27 00:07:41;;;;;;;8.53;5.43;;;16.60;99.90;;;;;;4984259;28;20231;-72
2022/10/27 00:10:07;;;;;;;11.87;5.27;;;16.50;99.90;;;;;;4972746;28;20205;-71
2022/10/27 00:12:34;;;;;;;10.00;5.40;;;16.50;99.90;;;;;;4978325;28;20185;-73
2022/10/27 00:14:59;;;;;;;9.87;5.20;;;16.50;99.90;;;;;;4973550;28;20190;-71
2022/10/27 00:17:27;;;;;;;9.73;5.93;;;16.40;99.90;;;;;;4979359;28;20780;-71
2022/10/27 00:19:53;;;;;;;9.10;5.37;;;16.40;99.90;;;;;;4979881;28;20201;-72
2022/10/27 00:22:18;;;;;;;9.90;5.20;;;16.30;99.90;;;;;;4968869;28;20963;-71
2022/10/27 00:24:44;;;;;;;8.47;5.60;;;16.40;99.90;;;;;;4972341;28;20185;-72
2022/10/27 00:27:09;;;;;;;10.90;5.40;;;16.30;99.90;;;;;;4980250;28;20657;-71
2022/10/27 00:29:35;;;;;;;9.50;5.20;;;16.30;99.90;;;;;;4975048;28;20277;-72
2022/10/27 00:32:00;;;;;;;10.40;5.40;;;16.30;99.90;;;;;;4979942;28;20218;-71
2022/10/27 00:34:26;;;;;;;7.20;4.90;;;16.30;99.90;;;;;;4977889;28;20209;-71
2022/10/27 00:36:52;;;;;;;9.43;5.30;;;16.30;99.90;;;;;;4982573;28;20328;-71
2022/10/27 00:39:17;;;;;;;6.47;4.93;;;16.30;99.90;;;;;;4976741;28;20698;-70
2022/10/27 00:41:44;;;;;;;13.00;5.17;;;16.30;99.90;;;;;;4982784;28;20186;-72
2022/10/27 00:44:32;;;;;;;5.77;4.37;;;16.20;99.90;;;;;;4977401;28;20205;-72
2022/10/27 00:47:16;;;;;;;10.73;5.00;;;16.20;99.90;;;;;;4971850;28;20476;-71
2022/10/27 00:49:48;;;;;;;14.40;4.93;;;16.20;99.90;;;;;;4980249;28;20445;-72
2022/10/27 00:52:24;;;;;;;8.63;4.40;;;16.20;99.90;;;;;;4980562;28;20880;-72
2022/10/27 00:54:51;;;;;;;10.80;4.90;;;16.20;99.90;;;;;;4982278;28;20464;-72
2022/10/27 00:57:16;;;;;;;11.13;6.77;;;16.20;99.90;;;;;;4975686;28;20440;-72
2022/10/27 00:59:42;;;;;;;8.53;4.67;;;16.20;99.90;;;;;;4975742;28;20539;-71
2022/10/27 01:02:09;;;;;;;8.93;5.27;;;16.20;99.90;;;;;;4975721;28;20186;-71
2022/10/27 01:04:53;;;;;;;11.00;5.37;;;16.20;99.90;;;;;;4965836;28;20187;-71
2022/10/27 01:07:20;;;;;;;10.40;4.60;;;16.20;99.90;;;;;;4971673;28;20441;-71
2022/10/27 01:09:46;;;;;;;7.97;4.77;;;16.20;99.90;;;;;;4975408;28;20547;-72
2022/10/27 01:12:12;;;;;;;8.13;4.20;;;16.20;99.90;;;;;;4971423;28;20445;-72
2022/10/27 01:14:37;;;;;;;8.67;4.53;;;16.10;99.90;;;;;;4978922;28;20439;-72
2022/10/27 01:17:22;;;;;;;9.40;5.03;;;16.10;99.90;;;;;;4983721;28;20185;-71
2022/10/27 01:20:08;;;;;;;12.17;4.70;;;16.10;99.90;;;;;;4981730;28;20272;-71
2022/10/27 01:22:58;;;;;;;7.57;4.50;;;16.10;99.90;;;;;;4989741;28;20814;-71
2022/10/27 01:25:45;;;;;;;8.20;4.80;;;16.10;99.90;;;;;;4974338;28;20496;-71
2022/10/27 01:28:45;;;;;;;12.23;4.80;;;16.10;99.90;;;;;;4976511;28;20438;-71
2022/10/27 01:31:17;;;;;;;6.57;4.57;;;16.10;99.90;;;;;;4947230;28;20499;-71
2022/10/27 01:34:19;;;;;;;10.63;5.50;;;16.00;99.90;;;;;;4977345;28;20454;-70
2022/10/27 01:36:53;;;;;;;9.73;5.77;;;16.00;99.90;;;;;;4979669;28;20440;-71
2022/10/27 01:39:27;;;;;;;9.77;5.40;;;16.00;99.90;;;;;;4975938;28;20969;-71
2022/10/27 01:42:08;;;;;;;8.30;4.90;;;16.00;99.90;;;;;;4979705;28;20991;-71
2022/10/27 01:44:41;;;;;;;15.17;5.70;;;16.00;99.90;;;;;;4966483;28;20928;-71
2022/10/27 01:47:09;;;;;;;7.80;4.93;;;16.00;99.90;;;;;;4979299;28;20461;-71
2022/10/27 01:49:39;;;;;;;8.83;4.53;;;16.00;99.90;;;;;;4967272;28;21361;-71
2022/10/27 01:52:07;;;;;;;10.27;4.60;;;15.90;99.90;;;;;;4980470;28;20710;-70
2022/10/27 01:54:35;;;;;;;8.30;5.20;;;15.90;99.90;;;;;;4979947;28;20506;-71
2022/10/27 01:57:25;;;;;;;9.20;4.50;;;15.90;99.90;;;;;;4977929;28;20540;-70
2022/10/27 02:00:01;;;;;;;9.00;6.70;;;15.90;99.90;;;;;;4975009;28;20476;-71
2022/10/27 02:02:45;;;;;;;6.27;4.10;;;15.90;99.90;;;;;;4985226;28;20866;-71
2022/10/27 02:05:22;;;;;;;10.13;5.00;;;15.90;99.90;;;;;;4984666;28;20421;-71
2022/10/27 02:08:15;;;;;;;8.33;5.33;;;15.90;99.90;;;;;;4975327;28;20441;-71
2022/10/27 02:11:03;;;;;;;14.80;4.50;;;15.80;99.90;;;;;;4980685;28;20526;-71
2022/10/27 02:13:32;;;;;;;9.60;4.60;;;15.80;99.90;;;;;;4974815;28;20480;-72
2022/10/27 02:16:03;;;;;;;9.47;5.40;;;15.80;99.90;;;;;;4984818;28;20447;-72
2022/10/27 02:18:32;;;;;;;6.10;4.33;;;15.80;99.90;;;;;;4977809;28;20511;-71
2022/10/27 02:21:05;;;;;;;11.77;4.77;;;15.80;99.90;;;;;;4986971;28;20465;-72
2022/10/27 02:23:31;;;;;;;11.10;4.90;;;15.70;99.90;;;;;;4976043;28;20449;-72
2022/10/27 02:26:11;;;;;;;9.43;5.43;;;15.70;99.90;;;;;;4977648;28;20447;-71
2022/10/27 02:29:03;;;;;;;9.87;4.20;;;15.70;99.90;;;;;;4972461;28;20544;-72
2022/10/27 02:31:38;;;;;;;7.17;4.60;;;15.70;99.90;;;;;;4975357;28;20469;-72
2022/10/27 02:34:05;;;;;;;5.77;4.30;;;15.70;99.90;;;;;;4979314;28;20467;-72
2022/10/27 02:36:31;;;;;;;7.97;4.47;;;15.60;99.90;;;;;;4970519;28;20445;-72
2022/10/27 02:38:56;;;;;;;5.20;4.17;;;15.60;99.90;;;;;;4979704;28;20476;-71
2022/10/27 02:41:22;;;;;;;9.53;4.63;;;15.60;99.90;;;;;;4977688;28;20461;-72
2022/10/27 02:43:48;;;;;;;5.90;4.10;;;15.60;99.90;;;;;;4979603;28;20652;-71
2022/10/27 02:46:13;;;;;;;10.20;4.60;;;15.60;99.90;;;;;;4979963;28;21213;-71
2022/10/27 02:48:39;;;;;;;8.70;4.60;;;15.60;99.90;;;;;;4982932;28;20738;-70
2022/10/27 02:51:04;;;;;;;8.53;4.30;;;15.50;99.90;;;;;;4989329;28;20710;-70
2022/10/27 02:53:30;;;;;;;13.47;4.83;;;15.50;99.90;;;;;;4990289;28;20707;-70
2022/10/27 02:55:55;;;;;;;9.00;5.40;;;15.50;99.90;;;;;;4978616;28;20199;-70
2022/10/27 02:58:21;;;;;;;5.77;4.70;;;15.50;99.90;;;;;;4977384;28;20218;-72
2022/10/27 03:00:47;;;;;;;7.17;4.70;;;15.50;99.90;;;;;;4983246;28;20240;-71
2022/10/27 03:03:12;;;;;;;10.00;5.07;;;15.50;99.90;;;;;;4972851;28;20191;-71
2022/10/27 03:05:38;;;;;;;9.43;4.70;;;15.50;99.90;;;;;;4977926;28;20186;-71
2022/10/27 03:08:04;;;;;;;9.70;5.30;;;15.50;99.90;;;;;;4982983;28;20595;-72
2022/10/27 03:10:29;;;;;;;13.87;5.40;;;15.40;99.90;;;;;;4979778;28;20318;-71
2022/10/27 03:12:55;;;;;;;10.33;4.60;;;15.40;99.90;;;;;;4977087;28;20202;-73
2022/10/27 03:15:20;;;;;;;8.57;5.27;;;15.40;99.90;;;;;;4977396;28;20195;-73
2022/10/27 03:17:47;;;;;;;15.43;5.17;;;15.40;99.90;;;;;;4965535;28;20876;-72
2022/10/27 03:20:14;;;;;;;9.63;5.70;;;15.40;99.90;;;;;;4982204;28;20288;-73
2022/10/27 03:22:40;;;;;;;6.70;4.47;;;15.40;99.90;;;;;;4982115;28;20802;-72
2022/10/27 03:25:07;;;;;;;11.70;5.27;;;15.30;99.90;;;;;;4987709;28;20421;-71
2022/10/27 03:27:33;;;;;;;11.20;4.90;;;15.30;99.90;;;;;;4972898;28;20743;-71
2022/10/27 03:29:58;;;;;;;8.70;4.97;;;15.30;99.90;;;;;;4976729;28;21033;-72
2022/10/27 03:32:24;;;;;;;9.10;5.40;;;15.30;99.90;;;;;;4972372;28;20687;-71
2022/10/27 03:34:49;;;;;;;8.70;5.60;;;15.20;99.90;;;;;;4970545;28;20610;-71
2022/10/27 03:37:15;;;;;;;6.47;5.00;;;15.20;99.90;;;;;;4971896;28;20252;-71
2022/10/27 03:39:40;;;;;;;8.20;5.30;;;15.20;99.90;;;;;;4979422;28;20619;-71
2022/10/27 03:42:06;;;;;;;7.23;4.53;;;15.20;99.90;;;;;;4983512;28;20198;-72
2022/10/27 03:44:31;;;;;;;12.77;5.20;;;15.20;99.90;;;;;;4981980;28;20183;-72
2022/10/27 03:46:57;;;;;;;10.73;5.37;;;15.20;99.90;;;;;;4986218;28;20536;-71
2022/10/27 03:49:23;;;;;;;9.73;5.03;;;15.20;99.90;;;;;;4979396;28;20780;-71
2022/10/27 03:51:48;;;;;;;8.10;4.80;;;15.20;99.90;;;;;;4958390;28;20196;-71
2022/10/27 03:54:14;;;;;;;8.27;5.43;;;15.10;99.90;;;;;;4978280;28;20209;-71
2022/10/27 03:56:39;;;;;;;9.40;5.30;;;15.10;99.90;;;;;;4960038;28;20633;-71
2022/10/27 03:59:05;;;;;;;7.10;4.80;;;15.10;99.90;;;;;;4982836;28;20297;-71
2022/10/27 04:01:33;;;;;;;8.17;5.30;;;15.10;99.90;;;;;;4980073;28;20225;-71
2022/10/27 04:03:58;;;;;;;9.83;5.30;;;15.10;99.90;;;;;;4970228;28;20305;-70
2022/10/27 04:06:24;;;;;;;7.27;5.20;;;15.10;99.90;;;;;;4972998;28;21596;-71
2022/10/27 04:08:50;;;;;;;9.23;5.10;;;15.10;99.90;;;;;;4978351;28;20791;-71
2022/10/27 04:11:15;;;;;;;11.77;5.13;;;15.00;99.90;;;;;;4978398;28;20218;-72
2022/10/27 04:13:41;;;;;;;11.23;5.20;;;15.00;99.90;;;;;;4982157;28;20205;-72
2022/10/27 04:16:07;;;;;;;12.50;4.83;;;15.00;99.90;;;;;;4980859;28;20195;-72
2022/10/27 04:18:33;;;;;;;10.47;5.67;;;15.00;99.90;;;;;;4976431;28;20206;-72
2022/10/27 04:21:03;;;;;;;9.27;6.00;;;15.00;99.90;;;;;;4978015;28;20461;-72
2022/10/27 04:23:29;;;;;;;11.03;5.40;;;14.90;99.90;;;;;;4977509;28;20846;-72
2022/10/27 04:25:55;;;;;;;8.73;5.97;;;14.90;99.90;;;;;;4978642;28;20532;-71
2022/10/27 04:28:21;;;;;;;10.47;5.80;;;14.90;99.90;;;;;;4975650;28;20276;-72
2022/10/27 04:30:46;;;;;;;13.43;5.60;;;14.90;99.90;;;;;;4980631;28;20260;-72
2022/10/27 04:33:13;;;;;;;7.63;5.43;;;14.90;99.90;;;;;;4988388;28;20182;-72
2022/10/27 04:35:38;;;;;;;9.10;5.90;;;14.80;99.90;;;;;;4988027;28;20273;-71
2022/10/27 04:38:04;;;;;;;10.87;6.30;;;14.90;99.90;;;;;;4965984;28;20595;-71
2022/10/27 04:40:29;;;;;;;7.20;5.33;;;14.80;99.90;;;;;;4983865;28;20579;-71
2022/10/27 04:42:55;;;;;;;8.17;5.27;;;14.80;99.90;;;;;;4974369;28;20198;-71
2022/10/27 04:45:21;;;;;;;11.33;5.37;;;14.70;99.90;;;;;;4979448;28;20186;-71
2022/10/27 04:47:47;;;;;;;9.67;5.43;;;14.70;99.90;;;;;;4982221;28;20182;-71
2022/10/27 04:50:14;;;;;;;9.53;5.40;;;14.70;99.90;;;;;;4986310;28;20453;-71
2022/10/27 04:52:40;;;;;;;8.20;5.00;;;14.70;99.90;;;;;;4990231;28;20184;-71
2022/10/27 04:55:06;;;;;;;8.83;5.13;;;14.60;99.90;;;;;;4968742;28;20448;-72
2022/10/27 04:57:32;;;;;;;10.13;5.30;;;14.60;99.90;;;;;;4984576;28;20813;-71
2022/10/27 04:59:57;;;;;;;12.50;5.50;;;14.60;99.90;;;;;;4972662;28;20476;-71
2022/10/27 05:02:23;;;;;;;7.80;5.40;;;14.60;99.90;;;;;;4981727;28;20638;-71
2022/10/27 05:04:49;;;;;;;8.50;5.53;;;14.60;99.90;;;;;;4981496;28;20182;-71
2022/10/27 05:07:14;;;;;;;12.80;5.83;;;14.60;99.90;;;;;;4966423;28;20186;-71
2022/10/27 05:09:40;;;;;;;9.37;5.93;;;14.60;99.90;;;;;;4979230;28;20463;-71
2022/10/27 05:12:06;;;;;;;9.60;5.90;;;14.60;99.90;;;;;;4979085;28;20188;-71
2022/10/27 05:14:31;;;;;;;11.47;5.90;;;14.60;99.90;;;;;;4978040;28;20192;-71
2022/10/27 05:16:57;;;;;;;17.80;6.00;;;14.60;99.90;;;;;;4981442;28;20217;-71
2022/10/27 05:19:22;;;;;;;10.30;5.90;;;14.60;99.90;;;;;;4976879;28;20233;-70
2022/10/27 05:21:48;;;;;;;13.50;5.93;;;14.60;99.90;;;;;;4964581;28;20189;-71
2022/10/27 05:24:14;;;;;;;12.00;6.30;;;14.60;99.90;;;;;;4976973;28;20810;-72
2022/10/27 05:26:40;;;;;;;7.37;5.30;;;14.60;99.90;;;;;;4977992;28;20178;-70
2022/10/27 05:29:06;;;;;;;8.90;5.37;;;14.60;99.90;;;;;;4977322;28;20539;-71
2022/10/27 05:31:31;;;;;;;8.03;5.70;;;14.60;99.90;;;;;;4984165;28;20205;-70
2022/10/27 05:33:57;;;;;;;10.33;5.50;;;14.60;99.90;;;;;;4965208;28;20193;-70
2022/10/27 05:36:22;;;;;;;8.83;5.37;;;14.60;99.90;;;;;;4977493;28;20186;-70
2022/10/27 05:38:48;;;;;;;9.50;6.40;;;14.70;99.90;;;;;;4982429;28;20304;-70
2022/10/27 05:41:13;;;;;;;9.40;6.37;;;14.70;99.90;;;;;;4983289;28;20198;-70
2022/10/27 05:43:40;;;;;;;13.77;5.30;;;14.60;99.90;;;;;;4983145;28;20174;-71
2022/10/27 05:46:06;;;;;;;6.90;5.30;;;14.60;99.90;;;;;;4969888;28;20190;-71
2022/10/27 05:48:32;;;;;;;14.67;6.03;;;14.60;99.90;;;;;;4980901;28;20476;-72
2022/10/27 05:50:58;;;;;;;12.90;7.03;;;14.60;99.90;;;;;;4974152;28;20464;-72
2022/10/27 05:53:23;;;;;;;10.93;6.13;;;14.50;99.90;;;;;;4973947;28;20189;-72
2022/10/27 05:55:52;;;;;;;11.10;6.23;;;14.50;99.90;;;;;;4964839;28;20852;-71
2022/10/27 05:58:18;;;;;;;8.90;5.60;;;14.50;99.90;;;;;;4978878;28;20204;-71
2022/10/27 06:00:43;;;;;;;12.23;6.63;;;14.60;99.90;;;;;;4978975;28;20465;-71
2022/10/27 06:03:18;;;;;;;8.63;5.53;;;14.50;99.90;;;;;;4983912;28;20265;-71
2022/10/27 06:05:44;;;;;;;9.87;5.77;;;14.50;99.90;;;;;;4981435;28;20272;-71
2022/10/27 06:08:09;;;;;;;11.60;5.47;;;14.50;99.90;;;;;;4975280;28;20529;-72
2022/10/27 06:10:35;;;;;;;10.53;6.17;;;14.50;99.90;;;;;;4979631;28;20277;-71
2022/10/27 06:13:05;;;;;;;7.33;5.67;;;14.50;99.90;;;;;;4981743;28;20202;-72
2022/10/27 06:15:31;;;;;;;10.67;5.83;;;14.50;99.90;;;;;;4984781;28;20205;-72
2022/10/27 06:17:57;;;;;;;9.33;5.20;;;14.50;99.90;;;;;;4993037;28;20405;-71
2022/10/27 06:20:23;;;;;;;13.30;6.13;;;14.50;99.90;;;;;;4979162;28;20467;-71
2022/10/27 06:22:48;;;;;;;9.37;6.40;;;14.50;99.90;;;;;;4984770;28;20550;-72
2022/10/27 06:25:14;;;;;;;11.10;6.53;;;14.40;99.90;;;;;;4980358;28;20181;-72
2022/10/27 06:27:40;;;;;;;9.30;5.97;;;14.40;99.90;;;;;;4981783;28;20698;-71
2022/10/27 06:30:06;;;;;;;10.33;5.10;;;14.40;99.90;;;;;;4984122;28;20303;-74
2022/10/27 06:32:36;;;;;;;14.33;5.60;;;14.40;99.90;;;;;;4989222;28;20184;-73
2022/10/27 06:35:02;;;;;;;8.07;4.77;;;14.30;99.90;;;;;;4993628;28;20432;-75
2022/10/27 06:37:28;;;;;;;9.73;5.27;;;14.20;99.90;;;;;;4985750;28;20435;-75
2022/10/27 06:39:54;;;;;;;6.20;4.80;;;14.20;99.90;;;;;;4985399;28;20295;-75
2022/10/27 06:42:21;;;;;;;14.43;11.77;;;14.10;99.90;;;;;;4985306;28;20783;-77
2022/10/27 06:44:47;;;;;;;7.70;4.97;;;14.10;99.90;;;;;;4988551;28;20437;-75
2022/10/27 06:47:13;;;;;;;9.70;6.73;;;14.10;99.90;;;;;;4979490;28;20457;-74
2022/10/27 06:49:38;;;;;;;6.73;4.43;;;14.10;99.90;;;;;;4983663;28;20482;-81
2022/10/27 06:52:04;;;;;;;4.60;3.60;;;14.10;99.90;;;;;;4970744;28;20187;-70
2022/10/27 06:54:29;;;;;;;10.03;3.60;;;14.10;99.90;;;;;;4982680;28;20179;-70
2022/10/27 06:56:55;;;;;;;5.87;4.47;;;14.10;99.90;;;;;;4987109;28;20194;-70
2022/10/27 06:59:20;;;;;;;5.10;4.33;;;14.00;99.90;;;;;;4982299;28;20734;-70
2022/10/27 07:01:46;;;;;;;9.13;3.97;;;13.90;99.90;;;;;;4977926;28;20208;-70
2022/10/27 07:04:12;;;;;;;4.80;4.00;;;13.90;99.90;;;;;;4967305;28;20202;-70
2022/10/27 07:06:37;;;;;;;6.87;4.50;;;13.90;99.90;;;;;;4980941;28;20926;-71
2022/10/27 07:09:03;;;;;;;5.93;4.47;;;13.80;99.90;;;;;;4982410;28;20178;-71
2022/10/27 07:11:28;;;;;;;6.10;4.80;;;13.80;99.90;;;;;;4987097;28;20194;-71
2022/10/27 07:13:54;;;;;;;6.50;4.47;;;13.80;99.90;;;;;;4978964;28;20670;-72
2022/10/27 07:16:20;;;;;;;4.03;3.60;;;13.70;99.90;;;;;;4983383;28;20272;-73
2022/10/27 07:18:45;;;;;;;5.53;3.90;;;13.70;99.90;;;;;;4985284;28;20249;-73
2022/10/27 07:21:11;;;;;;;5.20;4.00;;;13.60;99.90;;;;;;4987438;28;20722;-72
2022/10/27 07:23:37;;;;;;;4.27;3.63;;;13.60;99.90;;;;;;4984011;28;20625;-73
2022/10/27 07:26:02;;;;;;;4.50;3.97;;;13.70;99.90;;;;;;4979466;28;20245;-72
2022/10/27 07:28:28;;;;;;;6.57;4.67;;;13.80;99.90;;;;;;4981444;28;20197;-73
2022/10/27 07:30:54;;;;;;;5.80;4.43;;;13.80;99.90;;;;;;4967632;28;20210;-74
2022/10/27 07:33:20;;;;;;;5.97;5.20;;;13.80;99.90;;;;;;4980406;28;20185;-75
2022/10/27 07:35:52;;;;;;;4.90;4.00;;;13.90;99.90;;;;;;4979864;28;21182;-74
2022/10/27 07:38:19;;;;;;;5.13;4.57;;;14.00;99.90;;;;;;4987210;28;20580;-74
2022/10/27 07:40:45;;;;;;;5.90;4.57;;;14.00;99.90;;;;;;4989111;28;20946;-74
2022/10/27 07:43:11;;;;;;;7.37;5.33;;;14.00;99.90;;;;;;4989798;28;20409;-74
2022/10/27 07:45:39;;;;;;;7.50;4.80;;;14.00;99.90;;;;;;4992330;28;20490;-74
2022/10/27 07:48:06;;;;;;;8.13;5.57;;;14.10;99.90;;;;;;4989182;28;20231;-72
2022/10/27 07:50:32;;;;;;;6.00;5.40;;;14.10;99.90;;;;;;4970448;28;20848;-73
2022/10/27 07:52:59;;;;;;;6.80;5.30;;;14.20;99.90;;;;;;4969298;28;20459;-73
2022/10/27 07:55:27;;;;;;;7.10;5.97;;;14.30;99.90;;;;;;4979955;28;20441;-72
2022/10/27 07:58:13;;;;;;;9.73;6.00;;;14.30;99.90;;;;;;4984099;28;20425;-72
2022/10/27 08:00:42;;;;;;;7.50;5.40;;;14.30;99.90;;;;;;4978495;28;20496;-71
2022/10/27 08:03:12;;;;;;;8.30;5.30;;;14.30;99.90;;;;;;4990761;28;20418;-71
2022/10/27 08:05:37;;;;;;;29.07;6.67;;;14.30;99.90;;;;;;4985132;28;20441;-72
2022/10/27 08:08:05;;;;;;;7.53;5.47;;;14.30;99.90;;;;;;4981046;28;20416;-72
2022/10/27 08:10:32;;;;;;;20.70;7.20;;;14.20;99.90;;;;;;4985468;28;20283;-71
2022/10/27 08:12:58;;;;;;;8.73;5.40;;;14.10;99.90;;;;;;4987803;28;20420;-70
2022/10/27 08:15:23;;;;;;;12.97;7.23;;;14.10;99.90;;;;;;4984911;28;20447;-71
2022/10/27 08:17:54;;;;;;;12.27;6.20;;;14.20;99.90;;;;;;4981939;28;20237;-75
2022/10/27 08:20:21;;;;;;;8.97;6.90;;;14.20;99.90;;;;;;4983827;28;20205;-72
2022/10/27 08:22:53;;;;;;;9.80;7.20;;;14.20;99.90;;;;;;4983525;28;20437;-71
2022/10/27 08:25:18;;;;;;;12.43;6.73;;;14.20;99.90;;;;;;4975633;28;20443;-71
2022/10/27 08:27:44;;;;;;;12.30;6.93;;;14.40;99.90;;;;;;4977373;28;20840;-72
2022/10/27 08:30:09;;;;;;;16.00;6.30;;;14.50;99.90;;;;;;4988907;28;20201;-70
2022/10/27 08:32:35;;;;;;;13.20;7.27;;;14.60;99.90;;;;;;4981083;28;20197;-70
2022/10/27 08:35:00;;;;;;;15.10;7.73;;;14.60;99.90;;;;;;4989094;28;20240;-71
2022/10/27 08:37:26;;;;;;;9.90;6.83;;;14.60;99.90;;;;;;4976443;28;20193;-71
2022/10/27 08:39:51;;;;;;;10.17;7.10;;;14.60;99.90;;;;;;4977532;28;20347;-71
2022/10/27 08:42:55;;;;;;;9.50;7.20;;;14.70;99.90;;;;;;4983832;28;20678;-71
2022/10/27 08:45:36;;;;;;;9.90;6.77;;;14.80;99.90;;;;;;4946790;28;20204;-71
2022/10/27 08:48:02;;;;;;;8.00;7.13;;;14.90;99.90;;;;;;4981372;28;20441;-70
2022/10/27 08:50:34;;;;;;;11.20;7.40;;;15.00;99.90;;;;;;4979223;28;20457;-72
2022/10/27 08:53:05;;;;;;;11.23;7.33;;;15.00;99.90;;;;;;4986368;28;20204;-72
2022/10/27 08:55:33;;;;;;;13.17;7.20;;;15.20;99.90;;;;;;4982538;28;20465;-72
2022/10/27 08:58:01;;;;;;;11.37;8.07;;;15.10;99.90;;;;;;4985954;28;20443;-72
2022/10/27 09:00:31;;;;;;;10.37;7.70;;;15.20;99.90;;;;;;4976960;28;20527;-72
2022/10/27 09:03:04;;;;;;;9.57;7.90;;;15.10;99.90;;;;;;4986462;28;20452;-71
2022/10/27 09:05:50;;;;;;;9.23;8.00;;;15.20;99.90;;;;;;4983671;28;20425;-71
2022/10/27 09:08:16;;;;;;;9.00;8.10;;;15.30;99.90;;;;;;4985614;28;20428;-72
2022/10/27 09:11:40;;;;;;;9.83;8.83;;;15.30;99.90;;;;;;4982303;28;20503;-71
2022/10/27 09:14:28;;;;;;;11.07;9.30;;;15.30;99.90;;;;;;4891553;28;20244;-70
2022/10/27 09:16:58;;;;;;;12.40;9.33;;;15.50;99.90;;;;;;4982882;28;20809;-70
2022/10/27 09:19:34;;;;;;;9.47;8.13;;;15.60;99.90;;;;;;4981608;28;21028;-71
2022/10/27 09:22:04;;;;;;;11.87;8.90;;;15.60;99.90;;;;;;4983610;28;20435;-70
2022/10/27 09:24:33;;;;;;;11.77;9.30;;;15.70;99.90;;;;;;4980495;28;20413;-71
2022/10/27 09:27:01;;;;;;;11.20;8.63;;;15.80;99.90;;;;;;4983300;28;20445;-70
2022/10/27 09:29:29;;;;;;;11.20;8.50;;;15.90;99.90;;;;;;4978838;28;20441;-70
2022/10/27 09:32:22;;;;;;;11.77;9.57;;;15.90;99.90;;;;;;4982749;28;20471;-70
2022/10/27 09:35:11;;;;;;;11.70;9.13;;;15.90;99.90;;;;;;4987262;28;20445;-69
2022/10/27 09:37:41;;;;;;;14.60;10.60;;;15.90;99.90;;;;;;4980710;28;20810;-69
2022/10/27 09:40:12;;;;;;;10.80;8.70;;;16.10;99.90;;;;;;4983672;28;20464;-69
2022/10/27 09:42:41;;;;;;;10.23;9.13;;;16.10;99.90;;;;;;4981640;28;20413;-69
2022/10/27 09:45:18;;;;;;;12.40;8.77;;;16.20;99.90;;;;;;4983429;28;20433;-71
2022/10/27 09:47:48;;;;;;;13.43;10.17;;;16.30;99.90;;;;;;4981357;28;20460;-69
2022/10/27 09:50:43;;;;;;;16.17;9.80;;;16.30;99.90;;;;;;4980995;28;20489;-68
2022/10/27 09:53:41;;;;;;;17.67;10.07;;;16.30;99.90;;;;;;4972834;28;20592;-71
2022/10/27 09:56:13;;;;;;;10.30;8.83;;;16.20;99.90;;;;;;4976146;28;20422;-74
2022/10/27 09:58:49;;;;;;;13.23;10.40;;;16.10;99.90;;;;;;4981900;28;21070;-71
2022/10/27 10:01:15;;;;;;;11.90;9.57;;;16.10;99.90;;;;;;4975557;28;20948;-72
2022/10/27 10:04:04;;;;;;;13.90;10.43;;;16.10;99.90;;;;;;4976754;28;20433;-72
2022/10/27 10:06:39;;;;;;;11.20;9.07;;;16.10;99.90;;;;;;4982069;28;20659;-71
2022/10/27 10:09:34;;;;;;;17.87;9.63;;;16.10;99.90;;;;;;4985184;28;20456;-72
2022/10/27 10:12:20;;;;;;;15.37;10.47;;;16.20;99.90;;;;;;4982031;28;20455;-72
2022/10/27 10:14:46;;;;;;;10.17;8.83;;;16.20;99.90;;;;;;4974935;28;20439;-71
2022/10/27 10:17:26;;;;;;;10.27;8.80;;;16.30;99.90;;;;;;4981453;28;21131;-71
2022/10/27 10:19:55;;;;;;;14.70;10.03;;;16.30;99.90;;;;;;4975380;28;20292;-71
2022/10/27 10:22:26;;;;;;;11.20;9.57;;;16.30;99.90;;;;;;4978305;28;20441;-71
2022/10/27 10:24:53;;;;;;;14.17;11.83;;;16.40;99.90;;;;;;4978597;28;20420;-72
2022/10/27 10:27:38;;;;;;;11.77;9.27;;;16.40;99.90;;;;;;4963378;28;20528;-71
2022/10/27 10:30:04;;;;;;;15.70;9.90;;;16.40;99.90;;;;;;4977861;28;20452;-71
2022/10/27 10:32:36;;;;;;;10.87;9.30;;;16.50;99.90;;;;;;4964543;28;20436;-71
2022/10/27 10:35:22;;;;;;;10.10;8.20;;;16.50;99.90;;;;;;4974429;28;20433;-70
2022/10/27 10:37:48;;;;;;;10.00;8.80;;;16.60;99.90;;;;;;4978078;28;20468;-70
2022/10/27 10:40:13;;;;;;;13.07;8.60;;;16.60;99.90;;;;;;4977044;28;20472;-71
2022/10/27 10:42:44;;;;;;;15.60;8.70;;;16.70;99.90;;;;;;4977995;28;20206;-72
2022/10/27 10:45:32;;;;;;;11.27;7.63;;;16.80;99.90;;;;;;4975314;28;20186;-71
2022/10/27 10:48:15;;;;;;;11.03;7.80;;;16.80;99.90;;;;;;4964414;28;21388;-71
2022/10/27 10:50:49;;;;;;;15.00;12.63;;;16.90;99.90;;;;;;4975616;28;20452;-70
2022/10/27 10:53:38;;;;;;;17.57;14.50;;;16.90;99.90;;;;;;4981970;28;20416;-72
2022/10/27 10:56:18;;;;;;;9.53;8.37;;;16.90;99.90;;;;;;4981154;28;20426;-72
2022/10/27 10:58:45;;;;;;;13.40;9.10;;;17.00;99.90;;;;;;4982155;28;20895;-73
2022/10/27 11:01:11;;;;;;;13.67;7.37;;;17.10;99.90;;;;;;4980860;28;20856;-72
2022/10/27 11:03:42;;;;;;;10.30;7.97;;;17.20;99.90;;;;;;4966862;28;21194;-73
2022/10/27 11:06:18;;;;;;;9.07;7.40;;;17.30;99.90;;;;;;4983681;28;20424;-72
2022/10/27 11:08:51;;;;;;;10.60;7.47;;;17.30;99.90;;;;;;4978779;28;20440;-72
2022/10/27 11:11:21;;;;;;;9.57;6.73;;;17.30;99.90;;;;;;4986489;28;21047;-72
2022/10/27 11:13:54;;;;;;;12.47;6.83;;;17.30;99.90;;;;;;4992911;28;20417;-72
2022/10/27 11:16:20;;;;;;;9.30;6.80;;;17.40;99.90;;;;;;4984755;28;20536;-72
2022/10/27 11:18:59;;;;;;;10.47;6.57;;;17.50;99.90;;;;;;4984542;28;20559;-73
2022/10/27 11:21:40;;;;;;;9.73;7.83;;;17.50;99.90;;;;;;4980309;28;20214;-72
2022/10/27 11:24:22;;;;;;;10.27;6.30;;;17.60;99.90;;;;;;4981719;28;20412;-71
2022/10/27 11:26:53;;;;;;;9.87;6.40;;;17.70;99.90;;;;;;4967736;28;20422;-71
2022/10/27 11:29:37;;;;;;;9.80;6.53;;;17.80;99.90;;;;;;4982711;28;20754;-73
2022/10/27 11:32:32;;;;;;;13.63;6.47;;;18.00;99.90;;;;;;4983602;28;20468;-71
2022/10/27 11:35:15;;;;;;;9.40;5.60;;;18.20;99.90;;;;;;4983846;28;20423;-72
2022/10/27 11:37:58;;;;;;;8.60;4.90;;;18.40;99.90;;;;;;4984590;28;20440;-71
2022/10/27 11:40:36;;;;;;;10.10;6.00;;;18.70;99.90;;;;;;4980731;28;20442;-71
2022/10/27 11:43:12;;;;;;;11.60;5.67;;;19.00;99.90;;;;;;4983271;28;20433;-73
2022/10/27 11:45:48;;;;;;;10.87;5.23;;;19.70;99.90;;;;;;4982402;28;20441;-72
2022/10/27 11:48:19;;;;;;;9.87;4.93;;;20.60;99.90;;;;;;4986247;28;20447;-72
2022/10/27 11:50:50;;;;;;;9.10;5.20;;;21.40;99.90;;;;;;4986350;28;20978;-72
2022/10/27 11:53:17;;;;;;;7.73;4.70;;;22.10;99.90;;;;;;4984573;28;20433;-71
2022/10/27 11:56:00;;;;;;;7.80;5.20;;;22.80;99.90;;;;;;4989916;28;20439;-72
2022/10/27 11:58:38;;;;;;;10.20;4.47;;;23.30;99.90;;;;;;4983303;28;20472;-72
2022/10/27 12:01:22;;;;;;;9.83;4.90;;;23.90;99.90;;;;;;4989118;28;20464;-71
2022/10/27 12:04:06;;;;;;;6.47;4.80;;;24.50;99.90;;;;;;4981285;28;20441;-71
2022/10/27 12:06:58;;;;;;;10.57;4.00;;;25.20;99.90;;;;;;4984638;28;20504;-71
2022/10/27 12:09:47;;;;;;;6.63;3.97;;;25.40;99.90;;;;;;4982341;28;20873;-71
2022/10/27 12:12:26;;;;;;;14.53;4.40;;;25.70;99.90;;;;;;4985136;28;20420;-72
2022/10/27 12:15:05;;;;;;;8.13;5.00;;;25.80;99.90;;;;;;4983136;28;20429;-72
2022/10/27 12:17:39;;;;;;;8.07;4.17;;;25.70;99.90;;;;;;4981721;28;20426;-71
2022/10/27 12:20:09;;;;;;;6.90;4.13;;;25.70;99.90;;;;;;4983852;28;20478;-71
2022/10/27 12:22:50;;;;;;;7.30;4.30;;;25.80;99.90;;;;;;4974868;28;20441;-71
2022/10/27 12:25:50;;;;;;;6.87;4.23;;;25.90;99.90;;;;;;4985122;28;20429;-71
2022/10/27 12:28:17;;;;;;;7.60;4.30;;;26.00;99.90;;;;;;4963951;28;20855;-75
2022/10/27 12:30:46;;;;;;;5.60;4.00;;;26.30;99.90;;;;;;4981738;28;20455;-72
2022/10/27 12:33:33;;;;;;;4.83;4.00;;;26.40;99.90;;;;;;4987295;28;20412;-71
2022/10/27 12:36:13;;;;;;;5.30;4.10;;;26.60;99.90;;;;;;4979480;28;21027;-72
2022/10/27 12:39:20;;;;;;;9.33;4.50;;;26.60;99.90;;;;;;4993030;28;20825;-71
2022/10/27 12:42:04;;;;;;;6.73;4.27;;;26.80;99.90;;;;;;4972375;28;20531;-73
2022/10/27 12:44:32;;;;;;;7.60;5.67;;;26.90;99.90;;;;;;4982489;28;20434;-73
2022/10/27 12:47:18;;;;;;;8.43;4.33;;;27.00;99.90;;;;;;4983786;28;20444;-71
2022/10/27 12:50:34;;;;;;;8.83;4.23;;;27.20;99.90;;;;;;4978790;28;20632;-73
2022/10/27 12:53:16;;;;;;;12.30;5.63;;;27.50;99.90;;;;;;4918153;29;20447;-73
2022/10/27 12:55:48;;;;;;;6.83;3.93;;;27.80;99.90;;;;;;4911370;29;20446;-73
2022/10/27 12:58:24;;;;;;;10.37;4.07;;;28.00;99.90;;;;;;4960940;28;20467;-71
2022/10/27 13:01:18;;;;;;;7.63;6.50;;;28.30;99.90;;;;;;4981965;28;20472;-71
2022/10/27 13:04:21;;;;;;;7.87;3.70;;;28.50;99.90;;;;;;4987701;28;20433;-72